• Join FlightAware (Why Join?)
  • Login
  • US Flag 
 
02:36AM EST


 

Airport Tracker/Info


-or-


 

Live Flight TrackerFlight Track Log ✈ KAP550 ✈ 16-May-2013 ✈ KMSS - KALB

Flight Track Log - Related Links

Times and Time Zones

All times are in EDT time to prevent confusion due to time zone crossing. See the KAP550 flight status page for this flight to view local times or setup timezone preferences in your user account.

Time Position Orientation Groundspeed Altitude Reporting Facility
EDT Latitude Longitude Course Direction KTS MPH feet Rate Location/Type
07:18AM 44.7131 -74.7625 160° South 150 173 5,100  Level Boston Center
07:19AM 44.6781 -74.7375 153° Southeast 150 173 5,500 240 Climbing Boston Center
07:20AM 44.6367 -74.7214 165° South 150 173 5,600  Climbing Boston Center
07:21AM 44.5914 -74.6964 159° South 161 185 5,600  Level Boston Center
07:22AM 44.7124 -74.7312 160° South  Level FlightAware Approximate
07:22AM 44.5458 -74.6742 161° South 167 192 5,600  Level Boston Center
07:23AM 44.6721 -74.7110 160° South  Level FlightAware Approximate
07:23AM 44.5025 -74.6550 162° South 167 192 5,600  Level Boston Center
07:24AM 44.4572 -74.6303 159° South 167 192 5,600  Level Boston Center
07:25AM 44.4117 -74.6081 161° South 167 192 5,600  Level Boston Center
07:26AM 44.3683 -74.5892 163° South 165 190 5,600  Level Boston Center
07:27AM 44.3311 -74.5703 160° South 165 190 5,600  Level Boston Center
07:28AM 44.2858 -74.5483 161° South 165 190 5,600  Level Boston Center
07:29AM 44.2403 -74.5267 161° South 165 190 5,600  Level Boston Center
07:30AM 44.1969 -74.5019 158° South 165 190 5,600 -60 Level Boston Center
07:31AM 44.1494 -74.4800 162° South 165 190 5,500 -60 Descending Boston Center
07:32AM 44.1061 -74.4581 160° South 171 197 5,500  Level Boston Center
07:33AM 44.0564 -74.4364 163° South 176 203 5,500  Level Boston Center
07:34AM 44.0131 -74.4147 160° South 176 203 5,500  Level Boston Center
07:35AM 43.9656 -74.3900 159° South 176 203 5,500 60 Level Boston Center
07:36AM 43.9200 -74.3683 161° South 176 203 5,700 60 Climbing Boston Center
07:37AM 43.8725 -74.3439 160° South 176 203 5,700  Level Boston Center
07:38AM 43.8250 -74.3222 162° South 182 209 5,700  Level Boston Center
07:39AM 43.7775 -74.2978 160° South 182 209 5,700  Level Boston Center
07:40AM 43.7278 -74.2731 160° South 182 209 5,700  Level Boston Center
07:41AM 43.6761 -74.2486 161° South 187 215 5,700  Level Boston Center
07:42AM 43.6244 -74.2242 161° South 187 215 5,700  Level Boston Center
07:43AM 43.5769 -74.1997 160° South 187 215 5,700  Level Boston Center
07:44AM 43.5250 -74.1753 161° South 187 215 5,700  Level Boston Center
07:45AM 43.4756 -74.1539 163° South 187 215 5,700  Level Boston Center
07:46AM 43.4278 -74.1297 160° South 187 215 5,700 -60 Level Boston Center
07:47AM 43.3864 -74.1086 160° South 184 212 5,600 -120 Descending Boston Center
07:47AM 43.3719 -74.1053 170° South 187 215 5,600  Level Boston Center
07:47AM 43.3450 -74.0931 162° South 185 213 5,600  Level Boston Center
07:48AM 43.3286 -74.0814 153° Southeast 187 215 5,600  Level Boston Center
07:48AM 43.2975 -74.0661 160° South 192 221 5,600  Level Boston Center
07:49AM 43.2725 -74.0542 161° South 187 215 5,600  Level Boston Center
07:49AM 43.2458 -74.0419 162° South 191 220 5,600 -120 Level Boston Center
07:50AM 43.2292 -74.0331 159° South 187 215 5,500 -480 Descending Boston Center
07:50AM 43.1981 -74.0181 161° South 198 228 5,200 -420 Descending Boston Center
07:51AM 43.1711 -74.0058 162° South 194 223 5,100 -300 Descending Boston Center
07:51AM 43.1442 -73.9908 158° South 204 235 4,900 -420 Descending Boston Center
07:52AM 43.1172 -73.9789 162° South 204 235 4,700 -480 Descending Boston Center
07:52AM 43.0864 -73.9639 160° South 205 236 4,400 -420 Descending Boston Center
07:53AM 43.0656 -73.9519 157° South 209 241 4,300 -360 Descending Boston Center
07:53AM 43.0367 -73.9428 167° South 203 234 4,100 -300 Descending Boston Center
07:54AM 43.0117 -73.9336 165° South 197 227 4,000 -300 Descending Boston Center
07:54AM 42.9847 -73.9272 170° South 192 221 3,800 -420 Descending Boston Center
07:55AM 42.9597 -73.9153 161° South 197 227 3,600 -300 Descending Boston Center
07:55AM 42.9308 -73.9061 167° South 192 221 3,500 -120 Descending Boston Center
07:56AM 42.9078 -73.9000 169° South 197 227 3,500 -300 Level Boston Center
07:56AM 42.8808 -73.8908 166° South 182 209 3,200 -420 Descending Boston Center
07:57AM 42.8683 -73.8878 170° South 197 227 3,100 -420 Descending Boston Center
07:57AM 42.8289 -73.8783 170° South 188 216 2,800 -120 Descending Boston Center
07:58AM 42.8061 -73.8692 164° South 197 227 3,000 -360 Climbing Boston Center
07:58AM 42.7853 -73.8744 191° South 179 206 2,500 -720 Descending Boston Center
07:59AM 42.7372 -73.8733 179° South 167 192 2,000 -360 Descending Boston Center
08:00AM 42.7000 -73.8639 169° South 127 146 1,800 -360 Descending Boston Center
08:01AM 42.6881 -73.8128 108° East 136 157 1,300 -480 Descending Boston Center
08:02AM 42.7194 -73.8078 North 102 117 800 -480 Descending Boston Center
08:04AM 42.7491 -73.8020 22° Northeast  Level Estimated
08:11AM 42.7491 -73.8020 170° South  Level Estimated
08:12AM 42.7491 -73.8020 170° South  Level Estimated
08:13AM 42.7491 -73.8020 170° South  Level Estimated
08:14AM 42.7491 -73.8020 170° South  Level Estimated